sensor_id;sensor_type;location;lat;lon;timestamp;P1;P2;P0
77481;PMS5003;66582;43.004;-75.010;2023-03-21T00:01:04;11;10;
77481;PMS5003;66582;43.004;-75.010;2023-03-21T00:03:29;7;6;
77481;PMS5003;66582;43.004;-75.010;2023-03-21T00:05:54;13;10;
77481;PMS5003;66582;43.004;-75.010;2023-03-21T00:08:20;8;8;
77481;PMS5003;66582;43.004;-75.010;2023-03-21T00:10:45;11;9;
77481;PMS5003;66582;43.004;-75.010;2023-03-21T00:13:10;9;6;
77481;PMS5003;66582;43.004;-75.010;2023-03-21T00:15:36;5;5;
77481;PMS5003;66582;43.004;-75.010;2023-03-21T00:18:01;8;6;
77481;PMS5003;66582;43.004;-75.010;2023-03-21T00:20:26;10;8;
77481;PMS5003;66582;43.004;-75.010;2023-03-21T00:22:51;10;9;
77481;PMS5003;66582;43.004;-75.010;2023-03-21T00:25:17;7;7;
77481;PMS5003;66582;43.004;-75.010;2023-03-21T00:27:41;5;5;
77481;PMS5003;66582;43.004;-75.010;2023-03-21T00:30:07;8;6;
77481;PMS5003;66582;43.004;-75.010;2023-03-21T00:32:32;5;5;
77481;PMS5003;66582;43.004;-75.010;2023-03-21T00:34:57;6;5;
77481;PMS5003;66582;43.004;-75.010;2023-03-21T00:37:22;4;3;
77481;PMS5003;66582;43.004;-75.010;2023-03-21T00:39:48;5;4;
77481;PMS5003;66582;43.004;-75.010;2023-03-21T00:42:12;2;2;
77481;PMS5003;66582;43.004;-75.010;2023-03-21T00:44:37;5;4;
77481;PMS5003;66582;43.004;-75.010;2023-03-21T00:47:03;4;3;
77481;PMS5003;66582;43.004;-75.010;2023-03-21T00:49:29;3;2;
77481;PMS5003;66582;43.004;-75.010;2023-03-21T00:51:54;2;2;
77481;PMS5003;66582;43.004;-75.010;2023-03-21T00:54:19;2;2;
77481;PMS5003;66582;43.004;-75.010;2023-03-21T00:56:44;1;1;
77481;PMS5003;66582;43.004;-75.010;2023-03-21T00:59:09;5;3;
77481;PMS5003;66582;43.004;-75.010;2023-03-21T01:01:34;5;4;
77481;PMS5003;66582;43.004;-75.010;2023-03-21T01:04:00;7;7;
77481;PMS5003;66582;43.004;-75.010;2023-03-21T01:06:25;8;6;
77481;PMS5003;66582;43.004;-75.010;2023-03-21T01:08:50;9;9;
77481;PMS5003;66582;43.004;-75.010;2023-03-21T01:11:16;11;10;
77481;PMS5003;66582;43.004;-75.010;2023-03-21T01:13:41;11;9;
77481;PMS5003;66582;43.004;-75.010;2023-03-21T01:16:07;12;10;
77481;PMS5003;66582;43.004;-75.010;2023-03-21T01:18:31;10;10;
77481;PMS5003;66582;43.004;-75.010;2023-03-21T01:20:57;11;11;
77481;PMS5003;66582;43.004;-75.010;2023-03-21T01:23:23;33;24;
77481;PMS5003;66582;43.004;-75.010;2023-03-21T01:25:47;22;20;
77481;PMS5003;66582;43.004;-75.010;2023-03-21T01:28:13;21;20;
77481;PMS5003;66582;43.004;-75.010;2023-03-21T01:30:38;20;20;
77481;PMS5003;66582;43.004;-75.010;2023-03-21T01:33:04;21;21;
77481;PMS5003;66582;43.004;-75.010;2023-03-21T01:35:29;25;24;
77481;PMS5003;66582;43.004;-75.010;2023-03-21T01:37:54;13;11;
77481;PMS5003;66582;43.004;-75.010;2023-03-21T01:40:20;16;15;
77481;PMS5003;66582;43.004;-75.010;2023-03-21T01:42:45;21;21;
77481;PMS5003;66582;43.004;-75.010;2023-03-21T01:47:36;25;25;
77481;PMS5003;66582;43.004;-75.010;2023-03-21T01:50:02;20;20;
77481;PMS5003;66582;43.004;-75.010;2023-03-21T01:52:28;32;27;
77481;PMS5003;66582;43.004;-75.010;2023-03-21T01:54:53;25;21;
77481;PMS5003;66582;43.004;-75.010;2023-03-21T01:57:20;18;16;
77481;PMS5003;66582;43.004;-75.010;2023-03-21T01:59:45;20;16;
77481;PMS5003;66582;43.004;-75.010;2023-03-21T02:02:11;17;15;
77481;PMS5003;66582;43.004;-75.010;2023-03-21T02:04:36;16;13;
77481;PMS5003;66582;43.004;-75.010;2023-03-21T02:07:03;30;29;
77481;PMS5003;66582;43.004;-75.010;2023-03-21T02:09:27;29;29;
77481;PMS5003;66582;43.004;-75.010;2023-03-21T02:11:52;26;25;
77481;PMS5003;66582;43.004;-75.010;2023-03-21T02:14:18;28;23;
77481;PMS5003;66582;43.004;-75.010;2023-03-21T02:16:46;16;13;
77481;PMS5003;66582;43.004;-75.010;2023-03-21T02:19:15;16;16;
77481;PMS5003;66582;43.004;-75.010;2023-03-21T02:24:10;25;20;
77481;PMS5003;66582;43.004;-75.010;2023-03-21T02:28:51;21;17;
77481;PMS5003;66582;43.004;-75.010;2023-03-21T02:31:18;16;15;
77481;PMS5003;66582;43.004;-75.010;2023-03-21T02:36:14;21;19;
77481;PMS5003;66582;43.004;-75.010;2023-03-21T02:38:33;25;22;
77481;PMS5003;66582;43.004;-75.010;2023-03-21T02:41:00;38;34;
77481;PMS5003;66582;43.004;-75.010;2023-03-21T02:43:25;47;43;
77481;PMS5003;66582;43.004;-75.010;2023-03-21T02:45:48;41;40;
77481;PMS5003;66582;43.004;-75.010;2023-03-21T02:48:14;46;43;
77481;PMS5003;66582;43.004;-75.010;2023-03-21T02:50:40;39;36;
77481;PMS5003;66582;43.004;-75.010;2023-03-21T02:53:06;29;26;
77481;PMS5003;66582;43.004;-75.010;2023-03-21T02:55:30;38;31;
77481;PMS5003;66582;43.004;-75.010;2023-03-21T02:57:57;23;23;
77481;PMS5003;66582;43.004;-75.010;2023-03-21T03:00:23;26;18;
77481;PMS5003;66582;43.004;-75.010;2023-03-21T03:02:48;15;14;
77481;PMS5003;66582;43.004;-75.010;2023-03-21T03:05:14;21;19;
77481;PMS5003;66582;43.004;-75.010;2023-03-21T03:07:38;22;18;
77481;PMS5003;66582;43.004;-75.010;2023-03-21T03:10:09;16;14;
77481;PMS5003;66582;43.004;-75.010;2023-03-21T03:12:30;16;16;
77481;PMS5003;66582;43.004;-75.010;2023-03-21T03:14:56;31;29;
77481;PMS5003;66582;43.004;-75.010;2023-03-21T03:17:22;22;19;
77481;PMS5003;66582;43.004;-75.010;2023-03-21T03:19:47;16;16;
77481;PMS5003;66582;43.004;-75.010;2023-03-21T03:22:12;24;23;
77481;PMS5003;66582;43.004;-75.010;2023-03-21T03:24:37;22;21;
77481;PMS5003;66582;43.004;-75.010;2023-03-21T03:27:01;25;24;
77481;PMS5003;66582;43.004;-75.010;2023-03-21T03:29:27;31;31;
77481;PMS5003;66582;43.004;-75.010;2023-03-21T03:31:53;26;21;
77481;PMS5003;66582;43.004;-75.010;2023-03-21T03:34:18;18;16;
77481;PMS5003;66582;43.004;-75.010;2023-03-21T03:36:44;26;20;
77481;PMS5003;66582;43.004;-75.010;2023-03-21T03:39:09;30;30;
77481;PMS5003;66582;43.004;-75.010;2023-03-21T03:41:36;27;26;
77481;PMS5003;66582;43.004;-75.010;2023-03-21T03:43:59;37;35;
77481;PMS5003;66582;43.004;-75.010;2023-03-21T03:46:27;30;29;
77481;PMS5003;66582;43.004;-75.010;2023-03-21T03:48:51;18;18;
77481;PMS5003;66582;43.004;-75.010;2023-03-21T03:51:16;13;13;
77481;PMS5003;66582;43.004;-75.010;2023-03-21T03:53:41;13;12;
77481;PMS5003;66582;43.004;-75.010;2023-03-21T03:56:07;12;11;
77481;PMS5003;66582;43.004;-75.010;2023-03-21T03:58:32;8;8;
77481;PMS5003;66582;43.004;-75.010;2023-03-21T04:00:57;9;8;
77481;PMS5003;66582;43.004;-75.010;2023-03-21T04:03:24;17;15;
77481;PMS5003;66582;43.004;-75.010;2023-03-21T04:05:48;11;11;
77481;PMS5003;66582;43.004;-75.010;2023-03-21T04:08:15;11;9;
77481;PMS5003;66582;43.004;-75.010;2023-03-21T04:10:40;9;8;
77481;PMS5003;66582;43.004;-75.010;2023-03-21T04:13:05;7;7;
77481;PMS5003;66582;43.004;-75.010;2023-03-21T04:15:30;7;7;
77481;PMS5003;66582;43.004;-75.010;2023-03-21T04:17:55;11;9;
77481;PMS5003;66582;43.004;-75.010;2023-03-21T04:20:20;9;8;
77481;PMS5003;66582;43.004;-75.010;2023-03-21T04:22:46;6;6;
77481;PMS5003;66582;43.004;-75.010;2023-03-21T04:25:11;6;4;
77481;PMS5003;66582;43.004;-75.010;2023-03-21T04:27:36;6;4;
77481;PMS5003;66582;43.004;-75.010;2023-03-21T04:30:01;6;4;
77481;PMS5003;66582;43.004;-75.010;2023-03-21T04:32:27;7;4;
77481;PMS5003;66582;43.004;-75.010;2023-03-21T04:34:52;8;6;
77481;PMS5003;66582;43.004;-75.010;2023-03-21T04:37:18;6;4;
77481;PMS5003;66582;43.004;-75.010;2023-03-21T04:39:43;7;6;
77481;PMS5003;66582;43.004;-75.010;2023-03-21T04:42:08;7;3;
77481;PMS5003;66582;43.004;-75.010;2023-03-21T04:44:33;7;6;
77481;PMS5003;66582;43.004;-75.010;2023-03-21T04:46:58;7;6;
77481;PMS5003;66582;43.004;-75.010;2023-03-21T04:49:24;7;7;
77481;PMS5003;66582;43.004;-75.010;2023-03-21T04:51:49;7;6;
77481;PMS5003;66582;43.004;-75.010;2023-03-21T04:54:15;6;6;
77481;PMS5003;66582;43.004;-75.010;2023-03-21T04:56:39;6;6;
77481;PMS5003;66582;43.004;-75.010;2023-03-21T04:59:06;6;6;
77481;PMS5003;66582;43.004;-75.010;2023-03-21T05:01:30;10;9;
77481;PMS5003;66582;43.004;-75.010;2023-03-21T05:03:55;16;15;
77481;PMS5003;66582;43.004;-75.010;2023-03-21T05:06:20;33;31;
77481;PMS5003;66582;43.004;-75.010;2023-03-21T05:08:45;34;32;
77481;PMS5003;66582;43.004;-75.010;2023-03-21T05:11:10;36;33;
77481;PMS5003;66582;43.004;-75.010;2023-03-21T05:13:35;31;27;
77481;PMS5003;66582;43.004;-75.010;2023-03-21T05:16:01;28;26;
77481;PMS5003;66582;43.004;-75.010;2023-03-21T05:18:26;25;25;
77481;PMS5003;66582;43.004;-75.010;2023-03-21T05:20:52;26;22;
77481;PMS5003;66582;43.004;-75.010;2023-03-21T05:23:18;29;26;
77481;PMS5003;66582;43.004;-75.010;2023-03-21T05:25:43;25;18;
77481;PMS5003;66582;43.004;-75.010;2023-03-21T05:28:08;14;13;
77481;PMS5003;66582;43.004;-75.010;2023-03-21T05:30:33;18;16;
77481;PMS5003;66582;43.004;-75.010;2023-03-21T05:32:59;16;15;
77481;PMS5003;66582;43.004;-75.010;2023-03-21T05:35:24;13;12;
77481;PMS5003;66582;43.004;-75.010;2023-03-21T05:37:49;18;15;
77481;PMS5003;66582;43.004;-75.010;2023-03-21T05:42:40;13;13;
77481;PMS5003;66582;43.004;-75.010;2023-03-21T05:45:05;22;18;
77481;PMS5003;66582;43.004;-75.010;2023-03-21T05:47:30;17;15;
77481;PMS5003;66582;43.004;-75.010;2023-03-21T05:49:56;13;13;
77481;PMS5003;66582;43.004;-75.010;2023-03-21T05:52:22;9;8;
77481;PMS5003;66582;43.004;-75.010;2023-03-21T05:54:48;17;14;
77481;PMS5003;66582;43.004;-75.010;2023-03-21T05:57:13;12;9;
77481;PMS5003;66582;43.004;-75.010;2023-03-21T05:59:38;12;9;
77481;PMS5003;66582;43.004;-75.010;2023-03-21T06:02:03;12;11;
77481;PMS5003;66582;43.004;-75.010;2023-03-21T06:04:29;13;11;
77481;PMS5003;66582;43.004;-75.010;2023-03-21T06:06:54;12;12;
77481;PMS5003;66582;43.004;-75.010;2023-03-21T06:09:19;14;13;
77481;PMS5003;66582;43.004;-75.010;2023-03-21T06:11:46;13;11;
77481;PMS5003;66582;43.004;-75.010;2023-03-21T06:14:09;7;7;
77481;PMS5003;66582;43.004;-75.010;2023-03-21T06:16:34;9;8;
77481;PMS5003;66582;43.004;-75.010;2023-03-21T06:19:00;13;12;
77481;PMS5003;66582;43.004;-75.010;2023-03-21T06:21:25;11;8;
77481;PMS5003;66582;43.004;-75.010;2023-03-21T06:23:51;12;9;
77481;PMS5003;66582;43.004;-75.010;2023-03-21T06:26:15;11;9;
77481;PMS5003;66582;43.004;-75.010;2023-03-21T06:28:41;11;8;
77481;PMS5003;66582;43.004;-75.010;2023-03-21T06:31:06;13;11;
77481;PMS5003;66582;43.004;-75.010;2023-03-21T06:33:31;9;9;
77481;PMS5003;66582;43.004;-75.010;2023-03-21T06:35:57;12;9;
77481;PMS5003;66582;43.004;-75.010;2023-03-21T06:38:23;12;12;
77481;PMS5003;66582;43.004;-75.010;2023-03-21T06:40:47;12;11;
77481;PMS5003;66582;43.004;-75.010;2023-03-21T06:43:13;16;15;
77481;PMS5003;66582;43.004;-75.010;2023-03-21T06:45:38;12;12;
77481;PMS5003;66582;43.004;-75.010;2023-03-21T06:48:04;13;11;
77481;PMS5003;66582;43.004;-75.010;2023-03-21T06:50:28;12;12;
77481;PMS5003;66582;43.004;-75.010;2023-03-21T06:52:53;16;13;
77481;PMS5003;66582;43.004;-75.010;2023-03-21T06:55:22;12;12;
77481;PMS5003;66582;43.004;-75.010;2023-03-21T06:57:44;15;13;
77481;PMS5003;66582;43.004;-75.010;2023-03-21T07:00:10;13;11;
77481;PMS5003;66582;43.004;-75.010;2023-03-21T07:02:34;17;12;
77481;PMS5003;66582;43.004;-75.010;2023-03-21T07:04:59;13;13;
77481;PMS5003;66582;43.004;-75.010;2023-03-21T07:07:25;16;13;
77481;PMS5003;66582;43.004;-75.010;2023-03-21T07:09:50;11;11;
77481;PMS5003;66582;43.004;-75.010;2023-03-21T07:12:16;13;11;
77481;PMS5003;66582;43.004;-75.010;2023-03-21T07:14:41;15;12;
77481;PMS5003;66582;43.004;-75.010;2023-03-21T07:17:06;13;12;
77481;PMS5003;66582;43.004;-75.010;2023-03-21T07:19:32;11;11;
77481;PMS5003;66582;43.004;-75.010;2023-03-21T07:21:57;13;13;
77481;PMS5003;66582;43.004;-75.010;2023-03-21T07:24:22;10;7;
77481;PMS5003;66582;43.004;-75.010;2023-03-21T07:26:47;10;10;
77481;PMS5003;66582;43.004;-75.010;2023-03-21T07:29:12;6;6;
77481;PMS5003;66582;43.004;-75.010;2023-03-21T07:31:37;11;8;
77481;PMS5003;66582;43.004;-75.010;2023-03-21T07:34:03;10;8;
77481;PMS5003;66582;43.004;-75.010;2023-03-21T07:36:29;8;8;
77481;PMS5003;66582;43.004;-75.010;2023-03-21T07:38:54;6;3;
77481;PMS5003;66582;43.004;-75.010;2023-03-21T07:41:20;9;8;
77481;PMS5003;66582;43.004;-75.010;2023-03-21T07:43:45;6;6;
77481;PMS5003;66582;43.004;-75.010;2023-03-21T07:46:10;8;6;
77481;PMS5003;66582;43.004;-75.010;2023-03-21T07:48:36;10;8;
77481;PMS5003;66582;43.004;-75.010;2023-03-21T07:51:01;9;7;
77481;PMS5003;66582;43.004;-75.010;2023-03-21T07:53:26;9;9;
77481;PMS5003;66582;43.004;-75.010;2023-03-21T07:55:51;10;8;
77481;PMS5003;66582;43.004;-75.010;2023-03-21T07:58:16;10;6;
77481;PMS5003;66582;43.004;-75.010;2023-03-21T08:00:42;11;11;
77481;PMS5003;66582;43.004;-75.010;2023-03-21T08:03:08;11;10;
77481;PMS5003;66582;43.004;-75.010;2023-03-21T08:05:33;9;7;
77481;PMS5003;66582;43.004;-75.010;2023-03-21T08:07:58;13;9;
77481;PMS5003;66582;43.004;-75.010;2023-03-21T08:10:24;12;11;
77481;PMS5003;66582;43.004;-75.010;2023-03-21T08:12:49;17;15;
77481;PMS5003;66582;43.004;-75.010;2023-03-21T08:15:14;16;15;
77481;PMS5003;66582;43.004;-75.010;2023-03-21T08:17:39;10;8;
77481;PMS5003;66582;43.004;-75.010;2023-03-21T08:20:05;14;12;
77481;PMS5003;66582;43.004;-75.010;2023-03-21T08:22:30;14;12;
77481;PMS5003;66582;43.004;-75.010;2023-03-21T08:24:55;12;10;
77481;PMS5003;66582;43.004;-75.010;2023-03-21T08:27:20;11;11;
77481;PMS5003;66582;43.004;-75.010;2023-03-21T08:29:45;8;8;
77481;PMS5003;66582;43.004;-75.010;2023-03-21T08:32:11;8;7;
77481;PMS5003;66582;43.004;-75.010;2023-03-21T08:34:36;11;11;
77481;PMS5003;66582;43.004;-75.010;2023-03-21T08:37:01;10;10;
77481;PMS5003;66582;43.004;-75.010;2023-03-21T08:39:26;11;11;
77481;PMS5003;66582;43.004;-75.010;2023-03-21T08:41:51;11;11;
77481;PMS5003;66582;43.004;-75.010;2023-03-21T08:44:17;11;9;
77481;PMS5003;66582;43.004;-75.010;2023-03-21T08:46:43;15;14;
77481;PMS5003;66582;43.004;-75.010;2023-03-21T08:49:08;14;12;
77481;PMS5003;66582;43.004;-75.010;2023-03-21T08:51:33;12;11;
77481;PMS5003;66582;43.004;-75.010;2023-03-21T08:53:58;16;13;
77481;PMS5003;66582;43.004;-75.010;2023-03-21T08:56:24;14;11;
77481;PMS5003;66582;43.004;-75.010;2023-03-21T08:58:50;11;10;
77481;PMS5003;66582;43.004;-75.010;2023-03-21T09:01:15;11;11;
77481;PMS5003;66582;43.004;-75.010;2023-03-21T09:03:41;12;10;
77481;PMS5003;66582;43.004;-75.010;2023-03-21T09:06:06;16;15;
77481;PMS5003;66582;43.004;-75.010;2023-03-21T09:08:31;13;13;
77481;PMS5003;66582;43.004;-75.010;2023-03-21T09:10:57;11;11;
77481;PMS5003;66582;43.004;-75.010;2023-03-21T09:13:22;15;15;
77481;PMS5003;66582;43.004;-75.010;2023-03-21T09:15:47;16;14;
77481;PMS5003;66582;43.004;-75.010;2023-03-21T09:18:13;15;12;
77481;PMS5003;66582;43.004;-75.010;2023-03-21T09:20:38;15;14;
77481;PMS5003;66582;43.004;-75.010;2023-03-21T09:23:03;13;13;
77481;PMS5003;66582;43.004;-75.010;2023-03-21T09:25:28;12;11;
77481;PMS5003;66582;43.004;-75.010;2023-03-21T09:27:53;15;14;
77481;PMS5003;66582;43.004;-75.010;2023-03-21T09:30:19;15;15;
77481;PMS5003;66582;43.004;-75.010;2023-03-21T09:32:44;12;12;
77481;PMS5003;66582;43.004;-75.010;2023-03-21T09:35:09;15;12;
77481;PMS5003;66582;43.004;-75.010;2023-03-21T09:37:35;15;12;
77481;PMS5003;66582;43.004;-75.010;2023-03-21T09:40:00;12;12;
77481;PMS5003;66582;43.004;-75.010;2023-03-21T09:42:28;17;16;
77481;PMS5003;66582;43.004;-75.010;2023-03-21T09:44:54;18;16;
77481;PMS5003;66582;43.004;-75.010;2023-03-21T09:47:17;17;15;
77481;PMS5003;66582;43.004;-75.010;2023-03-21T09:49:41;17;15;
77481;PMS5003;66582;43.004;-75.010;2023-03-21T09:52:09;18;16;
77481;PMS5003;66582;43.004;-75.010;2023-03-21T09:54:34;17;15;
77481;PMS5003;66582;43.004;-75.010;2023-03-21T09:56:58;21;17;
77481;PMS5003;66582;43.004;-75.010;2023-03-21T09:59:24;20;17;
77481;PMS5003;66582;43.004;-75.010;2023-03-21T10:01:48;20;18;
77481;PMS5003;66582;43.004;-75.010;2023-03-21T10:04:15;21;21;
77481;PMS5003;66582;43.004;-75.010;2023-03-21T10:06:40;20;17;
77481;PMS5003;66582;43.004;-75.010;2023-03-21T10:09:07;17;15;
77481;PMS5003;66582;43.004;-75.010;2023-03-21T10:11:33;15;13;
77481;PMS5003;66582;43.004;-75.010;2023-03-21T10:13:58;15;12;
77481;PMS5003;66582;43.004;-75.010;2023-03-21T10:16:24;17;16;
77481;PMS5003;66582;43.004;-75.010;2023-03-21T10:18:47;19;15;
77481;PMS5003;66582;43.004;-75.010;2023-03-21T10:21:15;12;12;
77481;PMS5003;66582;43.004;-75.010;2023-03-21T10:23:38;11;11;
77481;PMS5003;66582;43.004;-75.010;2023-03-21T10:26:04;22;18;
77481;PMS5003;66582;43.004;-75.010;2023-03-21T10:28:29;18;17;
77481;PMS5003;66582;43.004;-75.010;2023-03-21T10:30:54;21;18;
77481;PMS5003;66582;43.004;-75.010;2023-03-21T10:33:21;16;16;
77481;PMS5003;66582;43.004;-75.010;2023-03-21T10:35:48;17;16;
77481;PMS5003;66582;43.004;-75.010;2023-03-21T10:38:12;17;15;
77481;PMS5003;66582;43.004;-75.010;2023-03-21T10:40:36;15;15;
77481;PMS5003;66582;43.004;-75.010;2023-03-21T10:45:27;12;12;
77481;PMS5003;66582;43.004;-75.010;2023-03-21T10:47:53;18;16;
77481;PMS5003;66582;43.004;-75.010;2023-03-21T10:50:19;16;14;
77481;PMS5003;66582;43.004;-75.010;2023-03-21T10:52:44;12;12;
77481;PMS5003;66582;43.004;-75.010;2023-03-21T10:57:35;14;13;
77481;PMS5003;66582;43.004;-75.010;2023-03-21T11:00:00;18;15;
77481;PMS5003;66582;43.004;-75.010;2023-03-21T11:02:27;13;12;
77481;PMS5003;66582;43.004;-75.010;2023-03-21T11:04:51;14;13;
77481;PMS5003;66582;43.004;-75.010;2023-03-21T11:07:16;15;14;
77481;PMS5003;66582;43.004;-75.010;2023-03-21T11:09:43;12;12;
77481;PMS5003;66582;43.004;-75.010;2023-03-21T11:12:09;13;12;
77481;PMS5003;66582;43.004;-75.010;2023-03-21T11:14:35;12;12;
77481;PMS5003;66582;43.004;-75.010;2023-03-21T11:16:58;13;13;
77481;PMS5003;66582;43.004;-75.010;2023-03-21T11:19:27;18;14;
77481;PMS5003;66582;43.004;-75.010;2023-03-21T11:21:48;14;13;
77481;PMS5003;66582;43.004;-75.010;2023-03-21T11:24:16;14;13;
77481;PMS5003;66582;43.004;-75.010;2023-03-21T11:26:40;17;14;
77481;PMS5003;66582;43.004;-75.010;2023-03-21T11:29:08;15;13;
77481;PMS5003;66582;43.004;-75.010;2023-03-21T11:31:36;17;14;
77481;PMS5003;66582;43.004;-75.010;2023-03-21T11:33:56;14;12;
77481;PMS5003;66582;43.004;-75.010;2023-03-21T11:36:26;17;13;
77481;PMS5003;66582;43.004;-75.010;2023-03-21T11:38:48;16;14;
77481;PMS5003;66582;43.004;-75.010;2023-03-21T11:43:38;12;10;
77481;PMS5003;66582;43.004;-75.010;2023-03-21T11:46:05;14;14;
77481;PMS5003;66582;43.004;-75.010;2023-03-21T11:48:28;21;17;
77481;PMS5003;66582;43.004;-75.010;2023-03-21T11:50:55;20;15;
77481;PMS5003;66582;43.004;-75.010;2023-03-21T11:53:21;17;16;
77481;PMS5003;66582;43.004;-75.010;2023-03-21T11:55:48;19;16;
77481;PMS5003;66582;43.004;-75.010;2023-03-21T11:58:13;19;16;
77481;PMS5003;66582;43.004;-75.010;2023-03-21T12:00:37;16;14;
77481;PMS5003;66582;43.004;-75.010;2023-03-21T12:05:26;19;17;
77481;PMS5003;66582;43.004;-75.010;2023-03-21T12:07:53;15;12;
77481;PMS5003;66582;43.004;-75.010;2023-03-21T12:12:43;13;12;
77481;PMS5003;66582;43.004;-75.010;2023-03-21T12:15:09;16;14;
77481;PMS5003;66582;43.004;-75.010;2023-03-21T12:17:36;12;12;
77481;PMS5003;66582;43.004;-75.010;2023-03-21T12:20:02;18;13;
77481;PMS5003;66582;43.004;-75.010;2023-03-21T12:22:26;18;16;
77481;PMS5003;66582;43.004;-75.010;2023-03-21T12:24:49;14;14;
77481;PMS5003;66582;43.004;-75.010;2023-03-21T12:27:15;13;12;
77481;PMS5003;66582;43.004;-75.010;2023-03-21T12:32:09;13;13;
77481;PMS5003;66582;43.004;-75.010;2023-03-21T12:37:01;25;21;
77481;PMS5003;66582;43.004;-75.010;2023-03-21T12:39:26;22;19;
77481;PMS5003;66582;43.004;-75.010;2023-03-21T12:41:51;21;21;
77481;PMS5003;66582;43.004;-75.010;2023-03-21T12:44:14;16;16;
77481;PMS5003;66582;43.004;-75.010;2023-03-21T12:46:40;18;17;
77481;PMS5003;66582;43.004;-75.010;2023-03-21T12:49:06;21;17;
77481;PMS5003;66582;43.004;-75.010;2023-03-21T12:51:31;16;16;
77481;PMS5003;66582;43.004;-75.010;2023-03-21T12:53:58;15;14;
77481;PMS5003;66582;43.004;-75.010;2023-03-21T12:56:22;15;14;
77481;PMS5003;66582;43.004;-75.010;2023-03-21T12:58:48;15;14;
77481;PMS5003;66582;43.004;-75.010;2023-03-21T13:01:12;19;17;
77481;PMS5003;66582;43.004;-75.010;2023-03-21T13:03:38;19;18;
77481;PMS5003;66582;43.004;-75.010;2023-03-21T13:06:03;14;14;
77481;PMS5003;66582;43.004;-75.010;2023-03-21T13:08:29;16;14;
77481;PMS5003;66582;43.004;-75.010;2023-03-21T13:10:53;17;15;
77481;PMS5003;66582;43.004;-75.010;2023-03-21T13:13:19;14;14;
77481;PMS5003;66582;43.004;-75.010;2023-03-21T13:15:47;16;15;
77481;PMS5003;66582;43.004;-75.010;2023-03-21T13:18:12;16;14;
77481;PMS5003;66582;43.004;-75.010;2023-03-21T13:20:36;14;14;
77481;PMS5003;66582;43.004;-75.010;2023-03-21T13:23:00;14;14;
77481;PMS5003;66582;43.004;-75.010;2023-03-21T13:25:27;16;14;
77481;PMS5003;66582;43.004;-75.010;2023-03-21T13:27:52;14;11;
77481;PMS5003;66582;43.004;-75.010;2023-03-21T13:30:17;16;16;
77481;PMS5003;66582;43.004;-75.010;2023-03-21T13:32:42;15;14;
77481;PMS5003;66582;43.004;-75.010;2023-03-21T13:35:12;15;14;
77481;PMS5003;66582;43.004;-75.010;2023-03-21T13:37:34;17;15;
77481;PMS5003;66582;43.004;-75.010;2023-03-21T13:39:59;12;11;
77481;PMS5003;66582;43.004;-75.010;2023-03-21T13:42:29;15;14;
77481;PMS5003;66582;43.004;-75.010;2023-03-21T13:44:51;15;15;
77481;PMS5003;66582;43.004;-75.010;2023-03-21T13:47:28;11;11;
77481;PMS5003;66582;43.004;-75.010;2023-03-21T13:49:40;12;11;
77481;PMS5003;66582;43.004;-75.010;2023-03-21T13:56:56;12;11;
77481;PMS5003;66582;43.004;-75.010;2023-03-21T14:04:13;6;5;
77481;PMS5003;66582;43.004;-75.010;2023-03-21T14:06:38;7;7;
77481;PMS5003;66582;43.004;-75.010;2023-03-21T14:09:02;8;8;
77481;PMS5003;66582;43.004;-75.010;2023-03-21T14:11:27;5;5;
77481;PMS5003;66582;43.004;-75.010;2023-03-21T14:13:52;7;7;
77481;PMS5003;66582;43.004;-75.010;2023-03-21T14:16:17;6;6;
77481;PMS5003;66582;43.004;-75.010;2023-03-21T14:18:44;7;6;
77481;PMS5003;66582;43.004;-75.010;2023-03-21T14:21:12;7;7;
77481;PMS5003;66582;43.004;-75.010;2023-03-21T14:23:33;8;8;
77481;PMS5003;66582;43.004;-75.010;2023-03-21T14:25:58;8;8;
77481;PMS5003;66582;43.004;-75.010;2023-03-21T14:28:24;7;6;
77481;PMS5003;66582;43.004;-75.010;2023-03-21T14:30:49;9;9;
77481;PMS5003;66582;43.004;-75.010;2023-03-21T14:33:14;6;6;
77481;PMS5003;66582;43.004;-75.010;2023-03-21T14:35:39;9;9;
77481;PMS5003;66582;43.004;-75.010;2023-03-21T14:38:05;8;8;
77481;PMS5003;66582;43.004;-75.010;2023-03-21T14:40:30;8;8;
77481;PMS5003;66582;43.004;-75.010;2023-03-21T14:42:55;8;8;
77481;PMS5003;66582;43.004;-75.010;2023-03-21T14:45:21;10;10;
77481;PMS5003;66582;43.004;-75.010;2023-03-21T14:47:54;8;8;
77481;PMS5003;66582;43.004;-75.010;2023-03-21T14:50:11;9;8;
77481;PMS5003;66582;43.004;-75.010;2023-03-21T14:52:36;9;9;
77481;PMS5003;66582;43.004;-75.010;2023-03-21T14:55:05;11;10;
77481;PMS5003;66582;43.004;-75.010;2023-03-21T14:57:27;11;10;
77481;PMS5003;66582;43.004;-75.010;2023-03-21T14:59:53;12;11;
77481;PMS5003;66582;43.004;-75.010;2023-03-21T15:02:18;11;11;
77481;PMS5003;66582;43.004;-75.010;2023-03-21T15:04:43;11;11;
77481;PMS5003;66582;43.004;-75.010;2023-03-21T15:07:21;10;10;
77481;PMS5003;66582;43.004;-75.010;2023-03-21T15:09:34;12;11;
77481;PMS5003;66582;43.004;-75.010;2023-03-21T15:12:00;11;11;
77481;PMS5003;66582;43.004;-75.010;2023-03-21T15:14:27;13;12;
77481;PMS5003;66582;43.004;-75.010;2023-03-21T15:16:50;8;8;
77481;PMS5003;66582;43.004;-75.010;2023-03-21T15:19:16;9;9;
77481;PMS5003;66582;43.004;-75.010;2023-03-21T15:21:41;10;10;
77481;PMS5003;66582;43.004;-75.010;2023-03-21T15:24:08;11;10;
77481;PMS5003;66582;43.004;-75.010;2023-03-21T15:26:31;13;13;
77481;PMS5003;66582;43.004;-75.010;2023-03-21T15:28:57;13;12;
77481;PMS5003;66582;43.004;-75.010;2023-03-21T15:31:23;12;12;
77481;PMS5003;66582;43.004;-75.010;2023-03-21T15:33:47;13;12;
77481;PMS5003;66582;43.004;-75.010;2023-03-21T15:36:16;11;11;
77481;PMS5003;66582;43.004;-75.010;2023-03-21T15:38:38;11;11;
77481;PMS5003;66582;43.004;-75.010;2023-03-21T15:43:28;13;13;
77481;PMS5003;66582;43.004;-75.010;2023-03-21T15:45:54;16;16;
77481;PMS5003;66582;43.004;-75.010;2023-03-21T15:48:20;15;13;
77481;PMS5003;66582;43.004;-75.010;2023-03-21T15:50:47;14;13;
77481;PMS5003;66582;43.004;-75.010;2023-03-21T15:53:10;10;10;
77481;PMS5003;66582;43.004;-75.010;2023-03-21T15:55:37;15;15;
77481;PMS5003;66582;43.004;-75.010;2023-03-21T15:58:02;15;15;
77481;PMS5003;66582;43.004;-75.010;2023-03-21T16:00:26;13;12;
77481;PMS5003;66582;43.004;-75.010;2023-03-21T16:02:52;16;14;
77481;PMS5003;66582;43.004;-75.010;2023-03-21T16:05:20;19;16;
77481;PMS5003;66582;43.004;-75.010;2023-03-21T16:07:43;16;16;
77481;PMS5003;66582;43.004;-75.010;2023-03-21T16:12:31;13;13;
77481;PMS5003;66582;43.004;-75.010;2023-03-21T16:14:56;18;16;
77481;PMS5003;66582;43.004;-75.010;2023-03-21T16:17:22;15;14;
77481;PMS5003;66582;43.004;-75.010;2023-03-21T16:19:47;12;10;
77481;PMS5003;66582;43.004;-75.010;2023-03-21T16:22:12;13;11;
77481;PMS5003;66582;43.004;-75.010;2023-03-21T16:24:38;17;15;